Time;durP1;ratioP1;P1;durP2;ratioP2;P2;SDS_P1;SDS_P2;PMS_P1;PMS_P2;Temp;Humidity;BMP_temperature;BMP_pressure;BME280_temperature;BME280_humidity;BME280_pressure;Samples;Min_cycle;Max_cycle;Signal;HPM_P1;HPM_P2
2021/09/11 00:00:48;;;;;;;9.23;5.88;;;;;;;-142.25;100.00;58004.16;5055554;28;20131;-59
2021/09/11 00:03:13;;;;;;;7.22;6.55;;;;;;;-142.25;100.00;58004.16;5054597;28;20473;-57
2021/09/11 00:05:39;;;;;;;6.22;5.63;;;;;;;-142.25;100.00;58004.16;5053727;28;20053;-63
2021/09/11 00:08:06;;;;;;;8.18;5.22;;;;;;;-142.25;100.00;58004.16;5056668;28;20530;-61
2021/09/11 00:10:32;;;;;;;9.20;5.68;;;;;;;-142.25;100.00;58004.16;5056252;28;20052;-58
2021/09/11 00:12:58;;;;;;;6.18;5.57;;;;;;;-142.25;100.00;58004.16;5055880;28;20594;-59
2021/09/11 00:15:25;;;;;;;7.00;5.88;;;;;;;-142.25;100.00;58004.16;5053881;28;20041;-59
2021/09/11 00:17:51;;;;;;;6.35;5.43;;;;;;;-142.25;100.00;58004.16;5054279;28;20528;-58
2021/09/11 00:20:17;;;;;;;6.65;5.18;;;;;;;-142.25;100.00;58004.16;5053974;28;20362;-58
2021/09/11 00:22:42;;;;;;;8.20;6.15;;;;;;;-142.25;100.00;58004.16;5056060;28;20030;-57
2021/09/11 00:25:08;;;;;;;7.03;5.75;;;;;;;-142.25;100.00;58004.16;5054618;28;20064;-60
2021/09/11 00:27:34;;;;;;;6.65;6.03;;;;;;;-142.25;100.00;58004.16;5055867;28;20390;-59
2021/09/11 00:29:59;;;;;;;6.10;5.60;;;;;;;-142.25;100.00;58004.16;5055377;28;20411;-56
2021/09/11 00:32:25;;;;;;;7.07;5.70;;;;;;;-142.25;100.00;58004.16;5056088;28;20059;-60
2021/09/11 00:34:50;;;;;;;6.85;6.10;;;;;;;-142.25;100.00;58004.16;5053804;28;20051;-60
2021/09/11 00:37:15;;;;;;;6.60;5.22;;;;;;;-142.25;100.00;58004.16;5054270;28;20104;-62
2021/09/11 00:39:41;;;;;;;7.47;5.68;;;;;;;-142.25;100.00;58004.16;5052860;28;20544;-61
2021/09/11 00:42:06;;;;;;;6.47;5.88;;;;;;;-142.25;100.00;58004.16;5055513;28;20102;-59
2021/09/11 00:44:32;;;;;;;6.80;5.97;;;;;;;-142.25;100.00;58004.16;5054094;28;20052;-57
2021/09/11 00:46:57;;;;;;;5.70;5.20;;;;;;;-142.25;100.00;58004.16;5053706;28;20123;-57
2021/09/11 00:49:22;;;;;;;8.50;6.20;;;;;;;-142.25;100.00;58004.16;5056033;28;20029;-61
2021/09/11 00:51:48;;;;;;;6.95;6.35;;;;;;;-142.25;100.00;58004.16;5053128;28;20390;-60
2021/09/11 00:54:14;;;;;;;7.22;6.25;;;;;;;-142.25;100.00;58004.16;5054997;28;20473;-58
2021/09/11 00:56:40;;;;;;;7.75;5.43;;;;;;;-142.25;100.00;58004.16;5054423;28;20029;-62
2021/09/11 00:59:05;;;;;;;6.03;5.35;;;;;;;-142.25;100.00;58004.16;5057015;28;20032;-59
2021/09/11 01:01:31;;;;;;;7.90;6.50;;;;;;;-142.25;100.00;58004.16;5055724;28;20098;-57
2021/09/11 01:03:57;;;;;;;7.18;6.47;;;;;;;-142.25;100.00;58004.16;5054477;28;20484;-57
2021/09/11 01:06:24;;;;;;;7.45;6.07;;;;;;;-142.25;100.00;58004.16;5054177;28;20048;-58
2021/09/11 01:08:49;;;;;;;6.90;5.63;;;;;;;-142.25;100.00;58004.16;5054699;28;20460;-58
2021/09/11 01:11:15;;;;;;;16.08;7.95;;;;;;;-142.25;100.00;58004.16;5054846;28;20035;-58
2021/09/11 01:13:41;;;;;;;5.82;5.30;;;;;;;-142.25;100.00;58004.16;5053519;28;20524;-59
2021/09/11 01:16:07;;;;;;;7.40;6.35;;;;;;;-142.25;100.00;58004.16;5054896;28;20040;-55
2021/09/11 01:18:33;;;;;;;6.97;5.88;;;;;;;-142.25;100.00;58004.16;5054320;28;20025;-56
2021/09/11 01:21:00;;;;;;;8.52;6.13;;;;;;;-142.25;100.00;58004.16;5054226;28;20032;-57
2021/09/11 01:23:26;;;;;;;9.38;6.00;;;;;;;-142.25;100.00;58004.16;5058866;28;20059;-62
2021/09/11 01:25:53;;;;;;;6.50;5.60;;;;;;;-142.25;100.00;58004.16;5063582;28;20048;-59
2021/09/11 01:28:18;;;;;;;5.82;5.32;;;;;;;-142.25;100.00;58004.16;5054139;28;20412;-59
2021/09/11 01:30:44;;;;;;;6.82;5.57;;;;;;;-142.25;100.00;58004.16;5053289;28;20033;-59
2021/09/11 01:33:10;;;;;;;7.88;6.05;;;;;;;-142.25;100.00;58004.16;5053940;28;20523;-57
2021/09/11 01:35:35;;;;;;;6.95;6.22;;;;;;;-142.25;100.00;58004.16;5054513;28;20036;-57
2021/09/11 01:38:00;;;;;;;7.28;6.03;;;;;;;-142.25;100.00;58004.16;5055604;28;20528;-54
2021/09/11 01:40:26;;;;;;;6.18;5.60;;;;;;;-142.25;100.00;58004.16;5054660;28;20037;-57
2021/09/11 01:42:52;;;;;;;8.95;5.72;;;;;;;-142.25;100.00;58004.16;5052994;28;20029;-54
2021/09/11 01:45:19;;;;;;;8.55;5.20;;;;;;;-142.25;100.00;58004.16;5053237;28;20032;-60
2021/09/11 01:47:45;;;;;;;6.55;5.88;;;;;;;-142.25;100.00;58004.16;5050244;28;20041;-56
2021/09/11 01:50:13;;;;;;;7.57;5.22;;;;;;;-142.25;100.00;58004.16;5053284;28;20045;-57
2021/09/11 01:52:40;;;;;;;7.15;6.28;;;;;;;-142.25;100.00;58004.16;5055142;28;20448;-62
2021/09/11 01:55:08;;;;;;;7.78;6.13;;;;;;;-142.25;100.00;58004.16;5054037;28;20041;-60
2021/09/11 01:57:37;;;;;;;6.10;5.50;;;;;;;-142.25;100.00;58004.16;5052631;28;20493;-56
2021/09/11 02:00:07;;;;;;;7.60;5.30;;;;;;;-142.25;100.00;58004.16;5052958;28;20020;-57
2021/09/11 02:02:32;;;;;;;8.32;6.10;;;;;;;-142.25;100.00;58004.16;5050829;28;20090;-61
2021/09/11 02:04:58;;;;;;;6.55;6.03;;;;;;;-142.25;100.00;58004.16;5050996;28;20064;-57
2021/09/11 02:07:23;;;;;;;7.13;6.43;;;;;;;-142.25;100.00;58004.16;5050025;28;20377;-58
2021/09/11 02:09:48;;;;;;;5.40;4.93;;;;;;;-142.25;100.00;58004.16;5052165;28;20383;-57
2021/09/11 02:12:14;;;;;;;6.95;6.10;;;;;;;-142.25;100.00;58004.16;5052674;28;20040;-61
2021/09/11 02:14:39;;;;;;;6.60;5.90;;;;;;;-142.25;100.00;58004.16;5051567;28;20036;-60
2021/09/11 02:17:05;;;;;;;5.80;5.30;;;;;;;-142.25;100.00;58004.16;5052955;28;20465;-60
2021/09/11 02:19:32;;;;;;;7.30;6.18;;;;;;;-142.25;100.00;58004.16;5052980;28;20028;-60
2021/09/11 02:21:58;;;;;;;7.50;6.90;;;;;;;-142.25;100.00;58004.16;5053720;28;20567;-60
2021/09/11 02:24:24;;;;;;;6.10;5.60;;;;;;;-142.25;100.00;58004.16;5052589;28;20032;-60
2021/09/11 02:26:49;;;;;;;8.38;6.20;;;;;;;-142.25;100.00;58004.16;5050699;28;20037;-59
2021/09/11 02:29:15;;;;;;;6.40;5.72;;;;;;;-142.25;100.00;58004.16;5053701;28;20025;-58
2021/09/11 02:31:41;;;;;;;9.30;6.65;;;;;;;-142.25;100.00;58004.16;5052894;28;20064;-61
2021/09/11 02:34:07;;;;;;;6.13;5.35;;;;;;;-142.25;100.00;58004.16;5053271;28;20723;-59
2021/09/11 02:36:32;;;;;;;6.32;5.82;;;;;;;-142.25;100.00;58004.16;5051783;28;20083;-60
2021/09/11 02:38:58;;;;;;;9.85;6.55;;;;;;;-142.25;100.00;58004.16;5051678;28;20041;-60
2021/09/11 02:41:23;;;;;;;7.38;6.68;;;;;;;-142.25;100.00;58004.16;5052783;28;20123;-56
2021/09/11 02:43:49;;;;;;;6.95;6.00;;;;;;;-142.25;100.00;58004.16;5053596;28;20033;-57
2021/09/11 02:46:15;;;;;;;6.85;5.72;;;;;;;-142.25;100.00;58004.16;5052714;28;20033;-57
2021/09/11 02:48:40;;;;;;;7.60;6.85;;;;;;;-142.25;100.00;58004.16;5053226;28;20040;-60
2021/09/11 02:51:06;;;;;;;6.20;5.70;;;;;;;-142.25;100.00;58004.16;5052085;28;20037;-61
2021/09/11 02:53:31;;;;;;;7.10;5.78;;;;;;;-142.25;100.00;58004.16;5053353;28;20024;-57
2021/09/11 02:55:57;;;;;;;6.82;6.07;;;;;;;-142.25;100.00;58004.16;5052991;28;20040;-60
2021/09/11 02:58:24;;;;;;;6.35;5.72;;;;;;;-142.25;100.00;58004.16;5052330;28;20025;-57
2021/09/11 03:00:50;;;;;;;6.55;5.95;;;;;;;-142.25;100.00;58004.16;5051731;28;20520;-59
2021/09/11 03:03:15;;;;;;;7.47;6.35;;;;;;;-142.25;100.00;58004.16;5049691;28;20521;-59
2021/09/11 03:05:41;;;;;;;7.07;6.15;;;;;;;-142.25;100.00;58004.16;5049330;28;20064;-61
2021/09/11 03:08:06;;;;;;;7.22;6.53;;;;;;;-142.25;100.00;58004.16;5053585;28;20405;-60
2021/09/11 03:10:32;;;;;;;8.65;6.28;;;;;;;-142.25;100.00;58004.16;5053447;28;20152;-60
2021/09/11 03:12:57;;;;;;;7.45;5.60;;;;;;;-142.25;100.00;58004.16;5052075;28;20155;-59
2021/09/11 03:15:23;;;;;;;6.25;5.57;;;;;;;-142.25;100.00;58004.16;5053222;28;20036;-57
2021/09/11 03:17:48;;;;;;;6.68;6.13;;;;;;;-142.25;100.00;58004.16;5050088;28;20044;-55
2021/09/11 03:20:14;;;;;;;6.25;5.65;;;;;;;-142.25;100.00;58004.16;5053415;28;20032;-55
2021/09/11 03:22:39;;;;;;;7.22;6.28;;;;;;;-142.25;100.00;58004.16;5051678;28;20033;-58
2021/09/11 03:25:05;;;;;;;6.18;5.55;;;;;;;-142.25;100.00;58004.16;5051646;28;21022;-56
2021/09/11 03:27:30;;;;;;;8.30;6.03;;;;;;;-142.25;100.00;58004.16;5051441;28;20036;-57
2021/09/11 03:29:56;;;;;;;6.60;5.95;;;;;;;-142.25;100.00;58004.16;5053261;28;20037;-56
2021/09/11 03:32:22;;;;;;;6.68;5.90;;;;;;;-142.25;100.00;58004.16;5049312;28;20033;-53
2021/09/11 03:34:47;;;;;;;6.55;5.68;;;;;;;-142.25;100.00;58004.16;5052337;28;20048;-54
2021/09/11 03:37:13;;;;;;;6.65;6.05;;;;;;;-142.25;100.00;58004.16;5051564;28;20321;-57
2021/09/11 03:39:38;;;;;;;7.22;6.50;;;;;;;-142.25;100.00;58004.16;5056246;28;20028;-61
2021/09/11 03:42:04;;;;;;;6.82;5.93;;;;;;;-142.25;100.00;58004.16;5059344;28;20502;-57
2021/09/11 03:44:29;;;;;;;6.65;6.05;;;;;;;-142.25;100.00;58004.16;5052667;28;20032;-56
2021/09/11 03:46:54;;;;;;;7.57;6.78;;;;;;;-142.25;100.00;58004.16;5052385;28;20121;-58
2021/09/11 03:49:20;;;;;;;7.65;6.88;;;;;;;-142.25;100.00;58004.16;5053733;28;20116;-62
2021/09/11 03:51:45;;;;;;;8.25;6.85;;;;;;;-142.25;100.00;58004.16;5052653;28;20505;-57
2021/09/11 03:54:11;;;;;;;7.03;6.33;;;;;;;-142.25;100.00;58004.16;5052484;28;20097;-59
2021/09/11 03:56:36;;;;;;;10.63;6.38;;;;;;;-142.25;100.00;58004.16;5051157;28;20440;-57
2021/09/11 03:59:02;;;;;;;7.75;6.40;;;;;;;-142.25;100.00;58004.16;5051390;28;20037;-58
2021/09/11 04:01:27;;;;;;;8.02;6.10;;;;;;;-142.25;100.00;58004.16;5052106;28;20040;-60
2021/09/11 04:03:52;;;;;;;7.43;6.65;;;;;;;-142.25;100.00;58004.16;5050497;28;20041;-58
2021/09/11 04:06:18;;;;;;;7.10;6.40;;;;;;;-142.25;100.00;58004.16;5054155;28;20092;-58
2021/09/11 04:08:43;;;;;;;8.10;6.55;;;;;;;-142.25;100.00;58004.16;5053361;28;20041;-56
2021/09/11 04:11:08;;;;;;;8.20;7.38;;;;;;;-142.25;100.00;58004.16;5055005;28;20032;-60
2021/09/11 04:13:34;;;;;;;7.07;6.47;;;;;;;-142.25;100.00;58004.16;5054522;28;20037;-58
2021/09/11 04:15:59;;;;;;;10.38;6.93;;;;;;;-142.25;100.00;58004.16;5054633;28;20025;-58
2021/09/11 04:18:25;;;;;;;7.20;6.50;;;;;;;-142.25;100.00;58004.16;5055350;28;20032;-61
2021/09/11 04:20:50;;;;;;;7.97;7.03;;;;;;;-142.25;100.00;58004.16;5056569;28;20024;-58
2021/09/11 04:23:16;;;;;;;7.55;6.82;;;;;;;-142.25;100.00;58004.16;5054239;28;20456;-59
2021/09/11 04:25:41;;;;;;;7.78;6.35;;;;;;;-142.25;100.00;58004.16;5056274;28;20378;-60
2021/09/11 04:28:07;;;;;;;6.53;6.03;;;;;;;-142.25;100.00;58004.16;5050625;28;20038;-57
2021/09/11 04:30:32;;;;;;;7.50;5.80;;;;;;;-142.25;100.00;58004.16;5052586;28;20040;-59
2021/09/11 04:32:58;;;;;;;7.75;6.78;;;;;;;-142.25;100.00;58004.16;5053924;28;20159;-60
2021/09/11 04:35:23;;;;;;;9.60;7.10;;;;;;;-142.25;100.00;58004.16;5054639;28;20381;-61
2021/09/11 04:37:49;;;;;;;7.35;6.60;;;;;;;-142.25;100.00;58004.16;5054353;28;20128;-57
2021/09/11 04:40:14;;;;;;;8.35;6.95;;;;;;;-142.25;100.00;58004.16;5052812;28;20559;-59
2021/09/11 04:42:40;;;;;;;9.98;6.85;;;;;;;-142.25;100.00;58004.16;5053263;28;20040;-59
2021/09/11 04:45:06;;;;;;;8.10;7.00;;;;;;;-142.25;100.00;58004.16;5053443;28;20055;-56
2021/09/11 04:47:32;;;;;;;6.93;6.32;;;;;;;-142.25;100.00;58004.16;5053573;28;20036;-58
2021/09/11 04:49:57;;;;;;;8.52;6.78;;;;;;;-142.25;100.00;58004.16;5057302;28;20037;-59
2021/09/11 04:52:22;;;;;;;8.60;7.20;;;;;;;-142.25;100.00;58004.16;5055633;28;20036;-60
2021/09/11 04:54:48;;;;;;;8.85;6.68;;;;;;;-142.25;100.00;58004.16;5055045;28;20515;-59
2021/09/11 04:57:13;;;;;;;7.65;6.13;;;;;;;-142.25;100.00;58004.16;5053781;28;20017;-58
2021/09/11 04:59:39;;;;;;;11.38;6.70;;;;;;;-142.25;100.00;58004.16;5054482;28;20036;-58
2021/09/11 05:02:04;;;;;;;8.52;6.68;;;;;;;-142.25;100.00;58004.16;5053927;28;20029;-58
2021/09/11 05:04:30;;;;;;;8.45;6.50;;;;;;;-142.25;100.00;58004.16;5053215;28;20523;-57
2021/09/11 05:06:55;;;;;;;6.72;6.13;;;;;;;-142.25;100.00;58004.16;5058342;28;20033;-61
2021/09/11 05:09:21;;;;;;;9.63;6.85;;;;;;;-142.25;100.00;58004.16;5063478;28;20115;-62
2021/09/11 05:11:47;;;;;;;7.18;6.50;;;;;;;-142.25;100.00;58004.16;5057269;28;20492;-57
2021/09/11 05:14:13;;;;;;;8.18;6.57;;;;;;;-142.25;100.00;58004.16;5053450;28;20037;-59
2021/09/11 05:16:38;;;;;;;7.50;6.28;;;;;;;-142.25;100.00;58004.16;5052711;28;20043;-57
2021/09/11 05:19:04;;;;;;;6.57;5.93;;;;;;;-142.25;100.00;58004.16;5056383;28;20035;-60
2021/09/11 05:21:29;;;;;;;6.65;6.15;;;;;;;-142.25;100.00;58004.16;5053584;28;20749;-59
2021/09/11 05:23:54;;;;;;;6.75;6.05;;;;;;;-142.25;100.00;58004.16;5052106;28;20048;-58
2021/09/11 05:26:20;;;;;;;10.38;6.70;;;;;;;-142.25;100.00;58004.16;5053397;28;20909;-60
2021/09/11 05:28:45;;;;;;;9.35;7.30;;;;;;;-142.25;100.00;58004.16;5053631;28;20037;-58
2021/09/11 05:31:10;;;;;;;6.70;6.10;;;;;;;-142.25;100.00;58004.16;5052753;28;20106;-59
2021/09/11 05:33:36;;;;;;;6.63;5.97;;;;;;;-142.25;100.00;58004.16;5054825;28;20045;-58
2021/09/11 05:36:01;;;;;;;6.82;6.13;;;;;;;-142.25;100.00;58004.16;5053303;28;20037;-57
2021/09/11 05:38:27;;;;;;;8.10;6.20;;;;;;;-142.25;100.00;58004.16;5053890;28;20041;-59
2021/09/11 05:40:52;;;;;;;6.22;5.63;;;;;;;-142.25;100.00;58004.16;5054295;28;20328;-62
2021/09/11 05:43:18;;;;;;;6.32;5.72;;;;;;;-142.25;100.00;58004.16;5054796;28;20090;-59
2021/09/11 05:45:43;;;;;;;7.30;6.00;;;;;;;-142.25;100.00;58004.16;5051636;28;20639;-61
2021/09/11 05:48:09;;;;;;;7.03;6.32;;;;;;;-142.25;100.00;58004.16;5053778;28;20487;-56
2021/09/11 05:50:34;;;;;;;9.60;6.22;;;;;;;-142.25;100.00;58004.16;5053050;28;20470;-59
2021/09/11 05:53:00;;;;;;;7.75;5.72;;;;;;;-142.25;100.00;58004.16;5053074;28;20091;-54
2021/09/11 05:55:25;;;;;;;6.50;5.82;;;;;;;-142.25;100.00;58004.16;5052047;28;20051;-61
2021/09/11 05:57:51;;;;;;;5.97;5.47;;;;;;;-142.25;100.00;58004.16;5056372;28;20035;-60
2021/09/11 06:00:16;;;;;;;6.43;5.82;;;;;;;-142.25;100.00;58004.16;5051764;28;20139;-59
2021/09/11 06:02:42;;;;;;;8.45;7.07;;;;;;;-142.25;100.00;58004.16;5051812;28;20098;-60
2021/09/11 06:05:07;;;;;;;17.02;12.68;;;;;;;-142.25;100.00;58004.16;5055002;28;21014;-56
2021/09/11 06:07:33;;;;;;;17.95;12.90;;;;;;;-142.25;100.00;58004.16;5054565;28;20528;-61
2021/09/11 06:10:03;;;;;;;8.85;7.03;;;;;;;-142.25;100.00;58004.16;5052266;28;20036;-60
2021/09/11 06:12:29;;;;;;;7.05;5.75;;;;;;;-142.25;100.00;58004.16;5053074;28;20102;-58
2021/09/11 06:14:54;;;;;;;7.15;5.63;;;;;;;-142.25;100.00;58004.16;5053434;28;20032;-58
2021/09/11 06:17:19;;;;;;;5.65;5.18;;;;;;;-142.25;100.00;58004.16;5050849;28;20032;-58
2021/09/11 06:19:45;;;;;;;6.25;5.68;;;;;;;-142.25;100.00;58004.16;5053389;28;20473;-65
2021/09/11 06:22:13;;;;;;;7.00;6.30;;;;;;;-142.25;100.00;58004.16;5052291;28;20025;-57
2021/09/11 06:24:39;;;;;;;6.57;5.20;;;;;;;-142.25;100.00;58004.16;5053531;28;20028;-60
2021/09/11 06:27:04;;;;;;;7.32;5.78;;;;;;;-142.25;100.00;58004.16;5053081;28;20364;-60
2021/09/11 06:29:30;;;;;;;8.02;5.90;;;;;;;-142.25;100.00;58004.16;5055169;28;20032;-61
2021/09/11 06:31:56;;;;;;;5.80;5.15;;;;;;;-142.25;100.00;58004.16;5051264;28;20476;-63
2021/09/11 06:34:21;;;;;;;7.25;5.60;;;;;;;-142.25;100.00;58004.16;5052939;28;20032;-59
2021/09/11 06:36:46;;;;;;;6.57;5.55;;;;;;;-142.25;100.00;58004.16;5044709;28;20048;-62
2021/09/11 06:39:12;;;;;;;5.85;5.30;;;;;;;-142.25;100.00;58004.16;5039123;28;20028;-60
2021/09/11 06:41:38;;;;;;;7.03;5.43;;;;;;;-142.25;100.00;58004.16;5035230;28;20041;-59
2021/09/11 06:44:03;;;;;;;5.68;5.07;;;;;;;-142.25;100.00;58004.16;5045487;28;20028;-61
2021/09/11 06:46:29;;;;;;;5.82;5.32;;;;;;;-142.25;100.00;58004.16;5057005;28;20033;-59
2021/09/11 06:48:54;;;;;;;5.40;4.88;;;;;;;-142.25;100.00;58004.16;5057419;28;20039;-62
2021/09/11 06:51:20;;;;;;;5.75;4.95;;;;;;;-142.25;100.00;58004.16;5056982;28;20151;-58
2021/09/11 06:53:45;;;;;;;5.93;5.18;;;;;;;-142.25;100.00;58004.16;5055378;28;20730;-57
2021/09/11 06:56:10;;;;;;;6.63;5.07;;;;;;;-142.25;100.00;58004.16;5057828;28;20029;-62
2021/09/11 06:58:36;;;;;;;6.63;5.20;;;;;;;-142.25;100.00;58004.16;5057225;28;20122;-58
2021/09/11 07:01:01;;;;;;;5.32;4.82;;;;;;;-142.25;100.00;58004.16;5056550;28;20036;-60
2021/09/11 07:03:27;;;;;;;5.85;5.35;;;;;;;-142.25;100.00;58004.16;5057005;28;20045;-58
2021/09/11 07:05:52;;;;;;;5.90;5.40;;;;;;;-142.25;100.00;58004.16;5055889;28;20150;-60
2021/09/11 07:08:17;;;;;;;7.55;5.20;;;;;;;-142.25;100.00;58004.16;5057086;28;20025;-61
2021/09/11 07:10:43;;;;;;;6.90;5.88;;;;;;;-142.25;100.00;58004.16;5056166;28;20048;-61
2021/09/11 07:13:09;;;;;;;6.32;5.45;;;;;;;-142.25;100.00;58004.16;5052495;28;20035;-59
2021/09/11 07:15:34;;;;;;;7.65;6.38;;;;;;;-142.25;100.00;58004.16;5050105;28;20029;-58
2021/09/11 07:18:00;;;;;;;5.65;5.20;;;;;;;-142.25;100.00;58004.16;5051711;28;20025;-58
2021/09/11 07:20:26;;;;;;;7.57;6.00;;;;;;;-142.25;100.00;58004.16;5053095;28;20315;-61
2021/09/11 07:22:52;;;;;;;6.32;5.80;;;;;;;-142.25;100.00;58004.16;5052423;28;20039;-59
2021/09/11 07:25:17;;;;;;;7.22;6.38;;;;;;;-142.25;100.00;58004.16;5055382;28;20036;-57
2021/09/11 07:27:43;;;;;;;5.75;5.25;;;;;;;-142.25;100.00;58004.16;5052115;28;20447;-57
2021/09/11 07:30:09;;;;;;;5.53;5.05;;;;;;;-142.25;100.00;58004.16;5053472;28;20037;-61
2021/09/11 07:32:35;;;;;;;6.95;6.35;;;;;;;-142.25;100.00;58004.16;5049487;28;20037;-61
2021/09/11 07:35:00;;;;;;;6.25;5.45;;;;;;;-142.25;100.00;58004.16;5052268;28;20141;-60
2021/09/11 07:37:25;;;;;;;7.43;5.68;;;;;;;-142.25;100.00;58004.16;5053055;28;20017;-61
2021/09/11 07:39:51;;;;;;;6.13;5.53;;;;;;;-142.25;100.00;58004.16;5052778;28;20039;-57
2021/09/11 07:42:17;;;;;;;5.97;4.97;;;;;;;-142.25;100.00;58004.16;5053683;28;20036;-61
2021/09/11 07:44:43;;;;;;;8.38;6.10;;;;;;;-142.25;100.00;58004.16;5055031;28;20021;-61
2021/09/11 07:47:08;;;;;;;7.63;6.03;;;;;;;-142.25;100.00;58004.16;5052560;28;20040;-61
2021/09/11 07:49:34;;;;;;;6.65;5.80;;;;;;;-142.25;100.00;58004.16;5055263;28;20040;-53
2021/09/11 07:51:59;;;;;;;6.43;5.88;;;;;;;-142.25;100.00;58004.16;5055390;28;20102;-59
2021/09/11 07:54:25;;;;;;;5.43;5.00;;;;;;;-142.25;100.00;58004.16;5055948;28;20912;-59
2021/09/11 07:56:50;;;;;;;6.70;5.97;;;;;;;-142.25;100.00;58004.16;5055003;28;20122;-60
2021/09/11 07:59:16;;;;;;;6.28;5.70;;;;;;;-142.25;100.00;58004.16;5056197;28;20589;-58
2021/09/11 08:01:41;;;;;;;6.18;5.50;;;;;;;-142.25;100.00;58004.16;5057484;28;20047;-59
2021/09/11 08:04:07;;;;;;;6.25;4.95;;;;;;;-142.25;100.00;58004.16;5055166;28;20126;-58
2021/09/11 08:06:32;;;;;;;10.38;6.05;;;;;;;-142.25;100.00;58004.16;5055771;28;20124;-63
2021/09/11 08:08:57;;;;;;;8.52;5.82;;;;;;;-142.25;100.00;58004.16;5056226;28;20037;-58
2021/09/11 08:11:23;;;;;;;7.13;5.75;;;;;;;-142.25;100.00;58004.16;5059965;28;20063;-58
2021/09/11 08:13:48;;;;;;;6.20;5.30;;;;;;;-142.25;100.00;58004.16;5062899;28;20037;-58
2021/09/11 08:16:14;;;;;;;7.43;6.57;;;;;;;-142.25;100.00;58004.16;5056341;28;20020;-58
2021/09/11 08:18:39;;;;;;;8.85;5.90;;;;;;;-142.25;100.00;58004.16;5057582;28;20568;-55
2021/09/11 08:21:05;;;;;;;7.50;5.88;;;;;;;-142.25;100.00;58004.16;5055652;28;20037;-58
2021/09/11 08:23:31;;;;;;;5.43;4.93;;;;;;;-142.25;100.00;58004.16;5058107;28;20098;-60
2021/09/11 08:25:56;;;;;;;8.07;5.90;;;;;;;-142.25;100.00;58004.16;5055041;28;20033;-59
2021/09/11 08:28:22;;;;;;;6.50;5.25;;;;;;;-142.25;100.00;58004.16;5056820;28;20040;-57
2021/09/11 08:30:47;;;;;;;6.45;5.25;;;;;;;-142.25;100.00;58004.16;5055189;28;20094;-59
2021/09/11 08:33:15;;;;;;;8.70;5.63;;;;;;;-142.25;100.00;58004.16;5057654;28;20049;-60
2021/09/11 08:35:41;;;;;;;6.03;5.40;;;;;;;-142.25;100.00;58004.16;5054224;28;20036;-64
2021/09/11 08:38:07;;;;;;;6.85;5.50;;;;;;;-142.25;100.00;58004.16;5055194;28;20032;-64
2021/09/11 08:40:32;;;;;;;6.32;5.72;;;;;;;-142.25;100.00;58004.16;5054237;28;20056;-62
2021/09/11 08:42:58;;;;;;;7.43;6.45;;;;;;;-142.25;100.00;58004.16;5054251;28;20037;-62
2021/09/11 08:45:24;;;;;;;9.57;7.03;;;;;;;-142.25;100.00;58004.16;5054491;28;20032;-56
2021/09/11 08:47:50;;;;;;;7.97;6.57;;;;;;;-142.25;100.00;58004.16;5054219;28;20041;-60
2021/09/11 08:50:17;;;;;;;8.27;5.85;;;;;;;-142.25;100.00;58004.16;5055869;28;20043;-63
2021/09/11 08:52:44;;;;;;;6.80;6.10;;;;;;;-142.25;100.00;58004.16;5054270;28;20033;-61
2021/09/11 08:55:12;;;;;;;6.05;5.32;;;;;;;-142.25;100.00;58004.16;5056158;28;20400;-61
2021/09/11 08:57:38;;;;;;;7.80;7.00;;;;;;;-142.25;100.00;58004.16;5054617;28;20033;-60
2021/09/11 09:00:08;;;;;;;7.90;6.78;;;;;;;-142.25;100.00;58004.16;5053474;28;20526;-60
2021/09/11 09:02:34;;;;;;;9.35;5.75;;;;;;;-142.25;100.00;58004.16;5054389;28;20040;-60
2021/09/11 09:05:01;;;;;;;7.35;6.30;;;;;;;-142.25;100.00;58004.16;5053806;28;20150;-62
2021/09/11 09:07:37;;;;;;;7.03;6.32;;;;;;;-142.25;100.00;58004.16;5053445;28;20041;-58
2021/09/11 09:10:05;;;;;;;7.35;6.65;;;;;;;-142.25;100.00;58004.16;5053865;28;20048;-59
2021/09/11 09:12:39;;;;;;;7.95;6.60;;;;;;;-142.25;100.00;58004.16;5054950;28;20384;-60
2021/09/11 09:15:12;;;;;;;6.15;5.65;;;;;;;-142.25;100.00;58004.16;5052193;28;20028;-61
2021/09/11 09:17:48;;;;;;;10.13;6.70;;;;;;;-142.25;100.00;58004.16;5054800;28;20040;-60
2021/09/11 09:20:16;;;;;;;8.23;6.50;;;;;;;-142.25;100.00;58004.16;5054427;28;20032;-58
2021/09/11 09:22:43;;;;;;;6.43;5.82;;;;;;;-142.25;100.00;58004.16;5053077;28;20040;-61
2021/09/11 09:25:29;;;;;;;6.90;5.85;;;;;;;-142.25;100.00;58004.16;5052872;28;20556;-61
2021/09/11 09:28:01;;;;;;;10.85;7.25;;;;;;;-142.25;100.00;58004.16;5055829;28;20044;-59
2021/09/11 09:30:49;;;;;;;7.22;6.47;;;;;;;-142.25;100.00;58004.16;5054202;28;20028;-60
2021/09/11 09:33:29;;;;;;;7.70;6.75;;;;;;;-142.25;100.00;58004.16;5053983;28;20113;-59
2021/09/11 09:36:00;;;;;;;8.65;6.30;;;;;;;-142.25;100.00;58004.16;5052277;28;20060;-61
2021/09/11 09:38:26;;;;;;;7.65;6.93;;;;;;;-142.25;100.00;58004.16;5053731;28;20488;-61
2021/09/11 09:40:53;;;;;;;7.00;5.88;;;;;;;-142.25;100.00;58004.16;5053147;28;20037;-61
2021/09/11 09:43:32;;;;;;;6.90;6.18;;;;;;;-142.25;100.00;58004.16;5052276;28;20037;-61
2021/09/11 09:46:12;;;;;;;9.02;7.65;;;;;;;-142.25;100.00;58004.16;5052625;28;20040;-60
2021/09/11 09:48:39;;;;;;;7.70;6.18;;;;;;;-142.25;100.00;58004.16;5053811;28;20037;-62
2021/09/11 09:51:10;;;;;;;8.82;6.30;;;;;;;-142.25;100.00;58004.16;5052545;28;20076;-59
2021/09/11 09:53:37;;;;;;;7.78;6.75;;;;;;;-142.25;100.00;58004.16;5053387;28;20480;-61
2021/09/11 09:56:03;;;;;;;7.60;6.65;;;;;;;-142.25;100.00;58004.16;5053970;28;20426;-61
2021/09/11 09:58:30;;;;;;;7.45;6.40;;;;;;;-142.25;100.00;58004.16;5052136;28;20116;-60
2021/09/11 10:00:56;;;;;;;9.15;6.65;;;;;;;-142.25;100.00;58004.16;5053557;28;20028;-61
2021/09/11 10:03:22;;;;;;;7.32;6.63;;;;;;;-142.25;100.00;58004.16;5053301;28;20095;-62
2021/09/11 10:05:51;;;;;;;12.68;6.13;;;;;;;-142.25;100.00;58004.16;5054058;28;20083;-59
2021/09/11 10:08:19;;;;;;;8.88;6.15;;;;;;;-142.25;100.00;58004.16;5053444;28;20506;-59
2021/09/11 10:10:47;;;;;;;7.72;6.40;;;;;;;-142.25;100.00;58004.16;5054025;28;20036;-62
2021/09/11 10:13:18;;;;;;;9.25;6.40;;;;;;;-142.25;100.00;58004.16;5054666;28;20032;-59
2021/09/11 10:16:04;;;;;;;7.50;6.25;;;;;;;-142.25;100.00;58004.16;5053950;28;20024;-59
2021/09/11 10:18:30;;;;;;;8.75;6.82;;;;;;;-142.25;100.00;58004.16;5054278;28;20045;-62
2021/09/11 10:21:17;;;;;;;7.45;6.75;;;;;;;-142.25;100.00;58004.16;5055031;28;20037;-61
2021/09/11 10:24:03;;;;;;;8.68;6.03;;;;;;;-142.25;100.00;58004.16;5051134;28;20037;-62
2021/09/11 10:26:50;;;;;;;7.35;6.45;;;;;;;-142.25;100.00;58004.16;5056187;28;20432;-62
2021/09/11 10:29:34;;;;;;;7.32;6.72;;;;;;;-142.25;100.00;58004.16;5058908;28;20033;-60
2021/09/11 10:32:01;;;;;;;8.77;6.43;;;;;;;-142.25;100.00;58004.16;5052163;28;20472;-61
2021/09/11 10:35:00;;;;;;;7.78;7.10;;;;;;;-142.25;100.00;58004.16;5052193;28;20040;-58
2021/09/11 10:37:25;;;;;;;8.60;7.60;;;;;;;-142.25;100.00;58004.16;5052845;28;20036;-61
2021/09/11 10:40:24;;;;;;;7.53;6.90;;;;;;;-142.25;100.00;58004.16;5053197;28;20047;-62
2021/09/11 10:43:04;;;;;;;7.53;6.78;;;;;;;-142.25;100.00;58004.16;5053313;28;20032;-62
2021/09/11 10:45:54;;;;;;;7.28;6.68;;;;;;;-142.25;100.00;58004.16;5052928;28;20033;-62
2021/09/11 10:48:44;;;;;;;9.68;7.20;;;;;;;-142.25;100.00;58004.16;5051510;28;20039;-61
2021/09/11 10:51:30;;;;;;;9.15;7.97;;;;;;;-142.25;100.00;58004.16;5052621;28;20317;-60
2021/09/11 10:54:22;;;;;;;7.05;6.30;;;;;;;-142.25;100.00;58004.16;5053676;28;20051;-60
2021/09/11 10:56:47;;;;;;;9.30;6.85;;;;;;;-142.25;100.00;58004.16;5051629;28;20504;-61
2021/09/11 10:59:15;;;;;;;7.88;7.13;;;;;;;-142.25;100.00;58004.16;5051854;28;20094;-59
2021/09/11 11:01:53;;;;;;;8.05;7.25;;;;;;;-142.25;100.00;58004.16;5052157;28;20041;-61
2021/09/11 11:04:33;;;;;;;6.53;6.00;;;;;;;-142.25;100.00;58004.16;5052722;28;20077;-62
2021/09/11 11:07:23;;;;;;;9.35;7.45;;;;;;;-142.25;100.00;58004.16;5054923;28;20037;-59
2021/09/11 11:10:06;;;;;;;10.80;7.45;;;;;;;-142.25;100.00;58004.16;5054165;28;20056;-60